Dixiana, Alabama
Current Conditions -  °F | °C
As of 2:53 PM on Friday 24 Oct 2014 (Local Time) from KBHM Reporting Station
Clear Clear  
Wind Chill: 75°   Ceiling: Unl
Heat Index: 75°   Visibility: 10mi
Dew Point: 40°   Wind: 7mph
Humidity: 28%   Direction: NA
Pressure: 30.06"   Gusts: NA
Location:  33.7345°N, 86.6508°W
Report Text: KBHM 241953Z VRB06KT 10SM CLR 24/04 A3006 RMK AO2 SLP174 T02390044
Loading
Personal Weather Stations






























Interactive Weather Map
Tropical Storm Tracking
New forecast layout! Learn more

10-Day Weather Forecast

Advertisements
Track Severe Weather on mobile